sensor_id;sensor_type;location;lat;lon;timestamp;P1;P2;P0
45312;PMS7003;68267;51.540;5.854;2023-07-20T00:06:58;4.45;7.31;7.2
45312;PMS7003;68267;51.540;5.854;2023-07-20T00:20:18;5.05;7.86;7.2
45312;PMS7003;68267;51.540;5.854;2023-07-20T00:33:37;4.81;7.64;7.2
45312;PMS7003;68267;51.540;5.854;2023-07-20T00:46:57;5.17;7.97;7.53
45312;PMS7003;68267;51.540;5.854;2023-07-20T01:00:17;6.01;8.73;8.4
45312;PMS7003;68267;51.540;5.854;2023-07-20T01:13:36;4.69;7.53;7.31
45312;PMS7003;68267;51.540;5.854;2023-07-20T01:26:56;6.25;8.95;8.51
45312;PMS7003;68267;51.540;5.854;2023-07-20T01:40:16;6.37;9.06;8.62
45312;PMS7003;68267;51.540;5.854;2023-07-20T01:53:35;7.81;10.36;9.49
45312;PMS7003;68267;51.540;5.854;2023-07-20T02:06:55;10.69;11.02;10.47
45312;PMS7003;68267;51.540;5.854;2023-07-20T02:20:14;12.13;14.29;12.98
45312;PMS7003;68267;51.540;5.854;2023-07-20T02:33:34;15.01;16.9;15.81
45312;PMS7003;68267;51.540;5.854;2023-07-20T02:46:54;15.01;16.9;15.92
45312;PMS7003;68267;51.540;5.854;2023-07-20T03:00:13;14.65;16.58;15.81
45312;PMS7003;68267;51.540;5.854;2023-07-20T03:13:33;16.69;17.23;16.14
45312;PMS7003;68267;51.540;5.854;2023-07-20T03:26:53;16.33;18.1;17.45
45312;PMS7003;68267;51.540;5.854;2023-07-20T03:40:12;17.17;18.87;17.56
45312;PMS7003;68267;51.540;5.854;2023-07-20T03:53:32;12.13;14.29;13.96
45312;PMS7003;68267;51.540;5.854;2023-07-20T04:06:52;11.05;13.31;12.87
45312;PMS7003;68267;51.540;5.854;2023-07-20T04:20:11;10.81;13.09;12.76
45312;PMS7003;68267;51.540;5.854;2023-07-20T04:33:31;10.45;12.76;12.54
45312;PMS7003;68267;51.540;5.854;2023-07-20T04:46:50;11.41;13.63;13.31
45312;PMS7003;68267;51.540;5.854;2023-07-20T05:00:10;9.49;11.89;11.56
45312;PMS7003;68267;51.540;5.854;2023-07-20T05:13:30;8.77;11.24;10.36
45312;PMS7003;68267;51.540;5.854;2023-07-20T05:26:49;12.01;14.18;13.2
45312;PMS7003;68267;51.540;5.854;2023-07-20T05:40:09;12.01;14.18;13.53
45312;PMS7003;68267;51.540;5.854;2023-07-20T05:53:28;11.05;13.31;12.76
45312;PMS7003;68267;51.540;5.854;2023-07-20T06:06:48;8.77;11.24;10.69
45312;PMS7003;68267;51.540;5.854;2023-07-20T06:20:08;9.25;11.67;10.91
45312;PMS7003;68267;51.540;5.854;2023-07-20T06:33:27;7.81;9.82;9.27
45312;PMS7003;68267;51.540;5.854;2023-07-20T06:46:47;6.49;9.17;9.06
45312;PMS7003;68267;51.540;5.854;2023-07-20T07:00:07;5.41;8.18;7.75
45312;PMS7003;68267;51.540;5.854;2023-07-20T07:13:26;3.73;6.66;6.55
45312;PMS7003;68267;51.540;5.854;2023-07-20T07:26:46;3.36;6.33;6.22
45312;PMS7003;68267;51.540;5.854;2023-07-20T07:40:05;3.24;6.22;6.0
45312;PMS7003;68267;51.540;5.854;2023-07-20T07:53:25;1.8;4.91;4.91
45312;PMS7003;68267;51.540;5.854;2023-07-20T08:06:45;0.01;1.75;1.64
45312;PMS7003;68267;51.540;5.854;2023-07-20T08:20:04;0.01;2.95;2.73
45312;PMS7003;68267;51.540;5.854;2023-07-20T08:33:24;0.01;1.64;1.54
45312;PMS7003;68267;51.540;5.854;2023-07-20T08:46:44;0.01;2.3;2.19
45312;PMS7003;68267;51.540;5.854;2023-07-20T09:00:03;0.01;1.75;1.75
45312;PMS7003;68267;51.540;5.854;2023-07-20T09:13:23;0.01;1.64;1.64
45312;PMS7003;68267;51.540;5.854;2023-07-20T09:26:43;0.01;1.86;1.64
45312;PMS7003;68267;51.540;5.854;2023-07-20T09:40:02;0.01;1.64;1.54
45312;PMS7003;68267;51.540;5.854;2023-07-20T09:53:22;0.36;3.61;3.5
45312;PMS7003;68267;51.540;5.854;2023-07-20T10:06:41;0.01;2.73;2.62
45312;PMS7003;68267;51.540;5.854;2023-07-20T10:20:01;0.36;3.61;3.61
45312;PMS7003;68267;51.540;5.854;2023-07-20T10:33:21;5.89;3.39;3.28
45312;PMS7003;68267;51.540;5.854;2023-07-20T10:46:40;0.01;2.3;2.19
45312;PMS7003;68267;51.540;5.854;2023-07-20T11:00:00;0.01;2.73;2.62
45312;PMS7003;68267;51.540;5.854;2023-07-20T11:13:20;7.33;1.97;1.75
45312;PMS7003;68267;51.540;5.854;2023-07-20T11:26:39;0.01;1.97;1.75
45312;PMS7003;68267;51.540;5.854;2023-07-20T11:39:59;0.01;1.64;1.64
45312;PMS7003;68267;51.540;5.854;2023-07-20T11:53:18;10.21;2.84;2.52
45312;PMS7003;68267;51.540;5.854;2023-07-20T12:06:38;0.01;2.62;2.62
45312;PMS7003;68267;51.540;5.854;2023-07-20T12:19:58;0.01;2.19;2.19
45312;PMS7003;68267;51.540;5.854;2023-07-20T12:33:17;0.01;1.97;1.97
45312;PMS7003;68267;51.540;5.854;2023-07-20T12:46:37;0.01;2.62;2.3
45312;PMS7003;68267;51.540;5.854;2023-07-20T12:59:57;0.01;2.3;2.08
45312;PMS7003;68267;51.540;5.854;2023-07-20T13:13:16;0.01;2.19;2.19
45312;PMS7003;68267;51.540;5.854;2023-07-20T13:26:36;0.01;2.41;2.19
45312;PMS7003;68267;51.540;5.854;2023-07-20T13:39:55;0.01;2.62;2.3
45312;PMS7003;68267;51.540;5.854;2023-07-20T13:53:15;0.01;1.86;1.86
45312;PMS7003;68267;51.540;5.854;2023-07-20T14:06:35;0.01;1.86;1.75
45312;PMS7003;68267;51.540;5.854;2023-07-20T14:19:54;0.01;1.75;1.75
45312;PMS7003;68267;51.540;5.854;2023-07-20T14:33:14;16.09;1.97;1.64
45312;PMS7003;68267;51.540;5.854;2023-07-20T14:46:34;0.01;1.64;1.64
45312;PMS7003;68267;51.540;5.854;2023-07-20T14:59:53;0.01;1.75;1.64
45312;PMS7003;68267;51.540;5.854;2023-07-20T15:13:13;0.01;1.64;1.64
45312;PMS7003;68267;51.540;5.854;2023-07-20T15:26:32;0.01;1.86;1.75
45312;PMS7003;68267;51.540;5.854;2023-07-20T15:39:52;2.88;1.97;1.86
45312;PMS7003;68267;51.540;5.854;2023-07-20T15:53:12;0.01;1.97;1.86
45312;PMS7003;68267;51.540;5.854;2023-07-20T16:06:31;0.01;2.08;1.86
45312;PMS7003;68267;51.540;5.854;2023-07-20T16:19:51;0.96;4.15;3.93
45312;PMS7003;68267;51.540;5.854;2023-07-20T16:33:11;0.6;3.82;3.61
45312;PMS7003;68267;51.540;5.854;2023-07-20T16:46:30;0.01;2.73;2.41
45312;PMS7003;68267;51.540;5.854;2023-07-20T16:59:50;0.01;2.41;2.19
45312;PMS7003;68267;51.540;5.854;2023-07-20T17:13:10;0.01;2.73;2.41
45312;PMS7003;68267;51.540;5.854;2023-07-20T17:26:29;0.01;3.06;2.62
45312;PMS7003;68267;51.540;5.854;2023-07-20T17:39:49;0.01;2.3;2.19
45312;PMS7003;68267;51.540;5.854;2023-07-20T17:53:09;1.2;4.37;4.15
45312;PMS7003;68267;51.540;5.854;2023-07-20T18:06:28;1.08;4.26;3.93
45312;PMS7003;68267;51.540;5.854;2023-07-20T18:19:48;4.81;5.9;5.46
45312;PMS7003;68267;51.540;5.854;2023-07-20T18:33:07;2.52;5.57;5.46
45312;PMS7003;68267;51.540;5.854;2023-07-20T18:46:27;2.64;5.68;5.24
45312;PMS7003;68267;51.540;5.854;2023-07-20T18:59:47;2.64;5.68;5.46
45312;PMS7003;68267;51.540;5.854;2023-07-20T19:13:06;3.48;6.44;6.22
45312;PMS7003;68267;51.540;5.854;2023-07-20T19:26:26;4.21;7.09;6.88
45312;PMS7003;68267;51.540;5.854;2023-07-20T19:39:46;3.97;6.88;6.66
45312;PMS7003;68267;51.540;5.854;2023-07-20T19:53:05;3.85;6.77;6.66
45312;PMS7003;68267;51.540;5.854;2023-07-20T20:06:25;4.45;7.31;7.2
45312;PMS7003;68267;51.540;5.854;2023-07-20T20:19:44;5.77;8.51;8.18
45312;PMS7003;68267;51.540;5.854;2023-07-20T20:33:04;6.13;8.84;8.73
45312;PMS7003;68267;51.540;5.854;2023-07-20T20:46:24;8.41;8.84;8.84
45312;PMS7003;68267;51.540;5.854;2023-07-20T20:59:43;4.45;7.31;6.99
45312;PMS7003;68267;51.540;5.854;2023-07-20T21:13:03;5.41;8.18;8.18
45312;PMS7003;68267;51.540;5.854;2023-07-20T21:26:23;5.41;8.18;7.75
45312;PMS7003;68267;51.540;5.854;2023-07-20T21:39:42;4.21;7.09;6.88
45312;PMS7003;68267;51.540;5.854;2023-07-20T21:53:02;6.73;7.64;7.53
45312;PMS7003;68267;51.540;5.854;2023-07-20T22:06:21;5.77;8.51;8.29
45312;PMS7003;68267;51.540;5.854;2023-07-20T22:19:41;6.13;8.84;8.62
45312;PMS7003;68267;51.540;5.854;2023-07-20T22:33:01;7.57;10.15;9.82
45312;PMS7003;68267;51.540;5.854;2023-07-20T22:46:20;6.37;9.06;8.95
45312;PMS7003;68267;51.540;5.854;2023-07-20T22:59:40;7.57;10.15;10.04
45312;PMS7003;68267;51.540;5.854;2023-07-20T23:12:59;7.69;10.26;10.15
45312;PMS7003;68267;51.540;5.854;2023-07-20T23:26:19;9.25;11.67;11.45
45312;PMS7003;68267;51.540;5.854;2023-07-20T23:39:39;11.17;13.42;12.87
45312;PMS7003;68267;51.540;5.854;2023-07-20T23:52:58;13.09;15.16;15.05
